createdAt,value
2023-05-22T00:00:48.989Z,32.72
2023-05-22T00:01:49.074Z,32.71
2023-05-22T00:02:49.098Z,32.72
2023-05-22T00:03:49.001Z,32.75
2023-05-22T00:04:49.027Z,32.72
2023-05-22T00:05:48.990Z,32.73
2023-05-22T00:06:49.001Z,32.73
2023-05-22T00:07:49.003Z,32.76
2023-05-22T00:08:48.971Z,32.73
2023-05-22T00:09:48.979Z,32.74
2023-05-22T00:10:48.970Z,32.75
2023-05-22T00:11:48.995Z,32.73
2023-05-22T00:12:49.072Z,32.76
2023-05-22T00:13:49.099Z,32.75
2023-05-22T00:14:49.151Z,32.73
2023-05-22T00:15:49.206Z,32.75
2023-05-22T00:16:49.305Z,32.79
2023-05-22T00:17:49.324Z,32.73
2023-05-22T00:18:49.319Z,32.76
2023-05-22T00:19:49.327Z,32.75
2023-05-22T00:20:49.358Z,32.76
2023-05-22T00:21:49.471Z,32.77
2023-05-22T00:22:49.368Z,32.77
2023-05-22T00:23:49.365Z,32.72
2023-05-22T00:24:49.386Z,32.72
2023-05-22T00:25:49.507Z,32.72
2023-05-22T00:26:49.426Z,32.76
2023-05-22T00:27:49.495Z,32.76
2023-05-22T00:28:49.511Z,32.77
2023-05-22T00:29:49.575Z,32.77
2023-05-22T00:30:49.601Z,32.76
2023-05-22T00:31:49.722Z,32.77
2023-05-22T00:32:49.738Z,32.76
2023-05-22T00:33:49.712Z,32.80
2023-05-22T00:34:49.849Z,32.77
2023-05-22T00:35:49.792Z,32.74
2023-05-22T00:36:49.992Z,32.76
2023-05-22T00:37:49.820Z,32.77
2023-05-22T00:38:49.835Z,32.79
2023-05-22T00:39:49.859Z,32.81
2023-05-22T00:40:49.834Z,32.76
2023-05-22T00:41:49.832Z,32.77
2023-05-22T00:42:49.801Z,32.73
2023-05-22T00:43:49.784Z,32.74
2023-05-22T00:44:49.785Z,32.79
2023-05-22T00:45:49.749Z,32.79
2023-05-22T00:46:49.764Z,32.77
2023-05-22T00:47:49.792Z,32.76
2023-05-22T00:48:49.711Z,32.75
2023-05-22T00:49:49.683Z,32.76
2023-05-22T00:50:49.683Z,32.77
2023-05-22T00:51:49.657Z,32.75
2023-05-22T00:52:49.674Z,32.81
2023-05-22T00:53:49.655Z,32.76
2023-05-22T00:54:49.652Z,32.80
2023-05-22T00:55:49.619Z,32.80
2023-05-22T00:56:49.610Z,32.77
2023-05-22T00:57:49.591Z,32.81
2023-05-22T00:58:49.586Z,32.78
2023-05-22T00:59:49.559Z,32.74
2023-05-22T01:00:49.588Z,32.81
2023-05-22T01:01:49.606Z,32.78
2023-05-22T01:02:49.591Z,32.79
2023-05-22T01:03:49.597Z,32.79
2023-05-22T01:04:49.511Z,32.77
2023-05-22T01:05:49.459Z,32.77
2023-05-22T01:06:49.469Z,32.76
2023-05-22T01:07:49.463Z,32.78
2023-05-22T01:08:49.487Z,32.80
2023-05-22T01:09:49.516Z,32.78
2023-05-22T01:10:49.553Z,32.82
2023-05-22T01:11:49.593Z,32.77
2023-05-22T01:12:49.650Z,32.80
2023-05-22T01:13:49.632Z,32.75
2023-05-22T01:14:49.646Z,32.81
2023-05-22T01:15:49.719Z,32.81
2023-05-22T01:16:49.686Z,32.78
2023-05-22T01:17:49.696Z,32.82
2023-05-22T01:18:49.671Z,32.76
2023-05-22T01:19:49.659Z,32.86
2023-05-22T01:20:49.641Z,32.80
2023-05-22T01:21:49.666Z,32.81
2023-05-22T01:22:49.690Z,32.77
2023-05-22T01:23:49.693Z,32.80
2023-05-22T01:24:49.705Z,32.82
2023-05-22T01:25:49.684Z,32.73
2023-05-22T01:26:49.687Z,32.82
2023-05-22T01:27:49.682Z,32.79
2023-05-22T01:28:49.663Z,32.82
2023-05-22T01:29:49.648Z,32.76
2023-05-22T01:30:49.659Z,32.77
2023-05-22T01:31:49.697Z,32.79
2023-05-22T01:32:49.800Z,32.77
2023-05-22T01:33:49.723Z,32.84
2023-05-22T01:34:49.697Z,32.81
2023-05-22T01:35:49.675Z,32.76
2023-05-22T01:36:49.697Z,32.82
2023-05-22T01:37:49.713Z,32.80
2023-05-22T01:38:49.733Z,32.82
2023-05-22T01:39:49.732Z,32.81
2023-05-22T01:40:49.741Z,32.79
2023-05-22T01:41:49.739Z,32.80
2023-05-22T01:42:49.785Z,32.78
2023-05-22T01:43:49.828Z,32.83
2023-05-22T01:44:49.829Z,32.82
2023-05-22T01:45:49.906Z,32.82
2023-05-22T01:46:49.861Z,32.83
2023-05-22T01:47:49.918Z,32.78
2023-05-22T01:48:49.824Z,32.85
2023-05-22T01:49:49.823Z,32.82
2023-05-22T01:50:49.825Z,32.79
2023-05-22T01:51:49.815Z,32.85
2023-05-22T01:52:49.835Z,32.82
2023-05-22T01:53:49.823Z,32.82
2023-05-22T01:54:49.799Z,32.80
2023-05-22T01:55:49.793Z,32.79
2023-05-22T01:56:49.805Z,32.82
2023-05-22T01:57:49.785Z,32.80
2023-05-22T01:58:49.784Z,32.79
2023-05-22T01:59:49.752Z,32.80
2023-05-22T02:00:49.822Z,32.79
2023-05-22T02:01:49.840Z,32.82
2023-05-22T02:02:49.822Z,32.82
2023-05-22T02:03:49.801Z,32.82
2023-05-22T02:04:49.720Z,32.85
2023-05-22T02:05:49.675Z,32.80
2023-05-22T02:06:49.667Z,32.82
2023-05-22T02:07:49.657Z,32.80
2023-05-22T02:08:49.643Z,32.85
2023-05-22T02:09:49.616Z,32.83
2023-05-22T02:10:49.614Z,32.80
2023-05-22T02:11:49.593Z,32.80
2023-05-22T02:12:49.587Z,32.82
2023-05-22T02:13:49.570Z,32.79
2023-05-22T02:14:49.569Z,32.79
2023-05-22T02:15:49.578Z,32.80
2023-05-22T02:16:49.535Z,32.80
2023-05-22T02:17:49.603Z,32.83
2023-05-22T02:18:49.580Z,32.80
2023-05-22T02:19:49.508Z,32.79
2023-05-22T02:20:49.496Z,32.83
2023-05-22T02:21:49.499Z,32.81
2023-05-22T02:22:49.492Z,32.80
2023-05-22T02:23:49.479Z,32.80
2023-05-22T02:24:49.466Z,32.80
2023-05-22T02:25:49.482Z,32.80
2023-05-22T02:26:49.463Z,32.80
2023-05-22T02:27:49.447Z,32.80
2023-05-22T02:28:49.563Z,32.79
2023-05-22T02:29:49.416Z,32.77
2023-05-22T02:30:49.439Z,32.80
2023-05-22T02:31:49.420Z,32.79
2023-05-22T02:32:49.425Z,32.76
2023-05-22T02:33:49.367Z,32.84
2023-05-22T02:34:49.355Z,32.77
2023-05-22T02:35:49.352Z,32.83
2023-05-22T02:36:49.353Z,32.80
2023-05-22T02:37:49.337Z,32.79
2023-05-22T02:38:49.322Z,32.79
2023-05-22T02:39:49.324Z,32.77
2023-05-22T02:40:49.320Z,32.73
2023-05-22T02:41:49.292Z,32.80
2023-05-22T02:42:49.317Z,32.79
2023-05-22T02:43:49.279Z,32.77
2023-05-22T02:44:49.260Z,32.77
2023-05-22T02:45:49.261Z,32.76
2023-05-22T02:46:49.320Z,32.77
2023-05-22T02:47:49.259Z,32.79
2023-05-22T02:48:49.229Z,32.79
2023-05-22T02:49:49.212Z,32.81
2023-05-22T02:50:49.200Z,32.77
2023-05-22T02:51:49.184Z,32.74
2023-05-22T02:52:49.186Z,32.75
2023-05-22T02:53:49.199Z,32.81
2023-05-22T02:54:49.183Z,32.81
2023-05-22T02:55:49.157Z,32.77
2023-05-22T02:56:49.145Z,32.77
2023-05-22T02:57:49.142Z,32.75
2023-05-22T02:58:49.113Z,32.79
2023-05-22T02:59:49.093Z,32.73
2023-05-22T03:00:49.095Z,32.77
2023-05-22T03:01:49.115Z,32.77
2023-05-22T03:02:49.174Z,32.77
2023-05-22T03:03:49.126Z,32.71
2023-05-22T03:04:49.025Z,32.74
2023-05-22T03:05:49.000Z,32.74
2023-05-22T03:06:48.999Z,32.79
2023-05-22T03:07:49.054Z,32.74
2023-05-22T03:08:48.961Z,32.74
2023-05-22T03:09:48.949Z,32.80
2023-05-22T03:10:48.925Z,32.73
2023-05-22T03:11:48.931Z,32.77
2023-05-22T03:12:48.898Z,32.75
2023-05-22T03:13:48.875Z,32.75
2023-05-22T03:14:48.882Z,32.79
2023-05-22T03:15:48.843Z,32.77
2023-05-22T03:16:48.902Z,32.77
2023-05-22T03:17:48.884Z,32.71
2023-05-22T03:18:48.874Z,32.74
2023-05-22T03:19:48.795Z,32.75
2023-05-22T03:20:48.782Z,32.74
2023-05-22T03:21:48.784Z,32.74
2023-05-22T03:22:48.770Z,32.73
2023-05-22T03:23:48.755Z,32.74
2023-05-22T03:24:48.757Z,32.72
2023-05-22T03:25:48.737Z,32.74
2023-05-22T03:26:48.732Z,32.74
2023-05-22T03:27:48.738Z,32.71
2023-05-22T03:28:48.711Z,32.73
2023-05-22T03:29:48.701Z,32.71
2023-05-22T03:30:48.692Z,32.75
2023-05-22T03:31:48.684Z,32.71
2023-05-22T03:32:48.815Z,32.69
2023-05-22T03:33:48.716Z,32.74
2023-05-22T03:34:48.674Z,32.68
2023-05-22T03:35:48.646Z,32.72
2023-05-22T03:36:48.650Z,32.67
2023-05-22T03:37:48.645Z,32.73
2023-05-22T03:38:48.611Z,32.70
2023-05-22T03:39:48.604Z,32.66
2023-05-22T03:40:48.579Z,32.74
2023-05-22T03:41:48.568Z,32.73
2023-05-22T03:42:48.578Z,32.72
2023-05-22T03:43:48.548Z,32.70
2023-05-22T03:44:48.541Z,32.70
2023-05-22T03:45:48.536Z,32.74
2023-05-22T03:46:48.512Z,32.74
2023-05-22T03:47:48.997Z,32.70
2023-05-22T03:48:48.507Z,32.68
2023-05-22T03:49:48.483Z,32.65
2023-05-22T03:50:48.472Z,32.67
2023-05-22T03:51:48.452Z,32.68
2023-05-22T03:52:48.468Z,32.65
2023-05-22T03:53:48.439Z,32.65
2023-05-22T03:54:48.424Z,32.71
2023-05-22T03:55:48.400Z,32.65
2023-05-22T03:56:48.400Z,32.67
2023-05-22T03:57:48.399Z,32.65
2023-05-22T03:58:48.385Z,32.60
2023-05-22T03:59:48.377Z,32.67
2023-05-22T04:00:48.373Z,32.68
2023-05-22T04:01:48.367Z,32.71
2023-05-22T04:02:48.419Z,32.67
2023-05-22T04:03:48.378Z,32.68
2023-05-22T04:04:48.505Z,32.63
2023-05-22T04:05:48.373Z,32.67
2023-05-22T04:06:48.372Z,32.67
2023-05-22T04:07:48.372Z,32.60
2023-05-22T04:08:48.365Z,32.63
2023-05-22T04:09:48.352Z,32.61
2023-05-22T04:10:48.359Z,32.60
2023-05-22T04:11:48.358Z,32.65
2023-05-22T04:12:48.358Z,32.64
2023-05-22T04:13:48.348Z,32.64
2023-05-22T04:14:48.354Z,32.60
2023-05-22T04:15:48.389Z,32.61
2023-05-22T04:16:50.456Z,32.61
2023-05-22T04:17:48.366Z,32.64
2023-05-22T04:18:48.375Z,32.68
2023-05-22T04:19:48.339Z,32.60
2023-05-22T04:20:48.318Z,32.60
2023-05-22T04:21:48.321Z,32.61
2023-05-22T04:22:48.339Z,32.61
2023-05-22T04:23:48.326Z,32.61
2023-05-22T04:24:48.342Z,32.57
2023-05-22T04:25:48.397Z,32.60
2023-05-22T04:26:48.347Z,32.64
2023-05-22T04:27:48.362Z,32.58
2023-05-22T04:28:48.375Z,32.63
2023-05-22T04:29:48.372Z,32.57
2023-05-22T04:30:48.440Z,32.58
2023-05-22T04:31:48.423Z,32.61
2023-05-22T04:32:48.434Z,32.54
2023-05-22T04:33:48.437Z,32.60
2023-05-22T04:34:48.413Z,32.53
2023-05-22T04:35:48.479Z,32.56
2023-05-22T04:36:48.430Z,32.56
2023-05-22T04:37:48.435Z,32.53
2023-05-22T04:38:48.433Z,32.59
2023-05-22T04:39:48.453Z,32.55
2023-05-22T04:40:48.461Z,32.61
2023-05-22T04:41:48.460Z,32.54
2023-05-22T04:42:48.457Z,32.52
2023-05-22T04:43:48.462Z,32.49
2023-05-22T04:44:48.549Z,32.56
2023-05-22T04:45:48.462Z,32.56
2023-05-22T04:46:48.526Z,32.54
2023-05-22T04:47:48.527Z,32.54
2023-05-22T04:48:48.463Z,32.53
2023-05-22T04:49:48.457Z,32.56
2023-05-22T04:50:48.456Z,32.50
2023-05-22T04:51:48.462Z,32.53
2023-05-22T04:52:48.465Z,32.53
2023-05-22T04:53:48.457Z,32.54
2023-05-22T04:54:48.445Z,32.52
2023-05-22T04:55:48.460Z,32.50
2023-05-22T04:56:48.450Z,32.46
2023-05-22T04:57:48.469Z,32.52
2023-05-22T04:58:48.429Z,32.52
2023-05-22T04:59:48.427Z,32.49
2023-05-22T05:00:48.443Z,32.47
2023-05-22T05:01:48.423Z,32.49
2023-05-22T05:02:48.443Z,32.49
2023-05-22T05:03:48.450Z,32.54
2023-05-22T05:04:48.384Z,32.52
2023-05-22T05:05:48.382Z,32.50
2023-05-22T05:06:48.371Z,32.54
2023-05-22T05:07:49.976Z,32.51
2023-05-22T05:08:48.467Z,32.53
2023-05-22T05:09:48.358Z,32.50
2023-05-22T05:10:48.334Z,32.47
2023-05-22T05:11:48.346Z,32.49
2023-05-22T05:12:48.328Z,32.50
2023-05-22T05:13:48.318Z,32.48
2023-05-22T05:14:48.308Z,32.48
2023-05-22T05:15:48.302Z,32.45
2023-05-22T05:16:48.360Z,32.47
2023-05-22T05:17:48.338Z,32.48
2023-05-22T05:18:48.311Z,32.45
2023-05-22T05:19:48.290Z,32.46
2023-05-22T05:20:48.289Z,32.43
2023-05-22T05:21:48.262Z,32.49
2023-05-22T05:22:48.261Z,32.50
2023-05-22T05:23:48.245Z,32.45
2023-05-22T05:24:48.408Z,32.41
2023-05-22T05:25:48.224Z,32.42
2023-05-22T05:26:48.235Z,32.45
2023-05-22T05:27:48.233Z,32.42
2023-05-22T05:28:48.201Z,32.45
2023-05-22T05:29:48.190Z,32.45
2023-05-22T05:30:48.185Z,32.42
2023-05-22T05:31:48.242Z,32.45
2023-05-22T05:32:48.237Z,32.44
2023-05-22T05:33:48.187Z,32.42
2023-05-22T05:34:48.165Z,32.58
2023-05-22T05:35:48.162Z,32.99
2023-05-22T05:36:48.156Z,33.46
2023-05-22T05:37:48.161Z,33.32
2023-05-22T05:38:48.142Z,33.92
2023-05-22T05:39:48.151Z,34.51
2023-05-22T05:40:48.142Z,34.45
2023-05-22T05:41:48.202Z,35.04
2023-05-22T05:42:48.116Z,34.90
2023-05-22T05:43:48.119Z,35.11
2023-05-22T05:44:48.101Z,35.60
2023-05-22T05:45:48.115Z,35.72
2023-05-22T05:46:48.074Z,35.60
2023-05-22T05:47:48.134Z,35.75
2023-05-22T05:48:48.071Z,35.75
2023-05-22T05:49:48.116Z,36.05
2023-05-22T05:50:48.153Z,36.50
2023-05-22T05:51:48.194Z,36.45
2023-05-22T05:52:48.233Z,36.48
2023-05-22T05:53:48.196Z,36.48
2023-05-22T05:54:48.162Z,36.57
2023-05-22T05:55:48.175Z,36.87
2023-05-22T05:56:48.206Z,36.87
2023-05-22T05:57:48.130Z,36.88
2023-05-22T05:58:48.096Z,36.82
2023-05-22T05:59:48.075Z,36.85
2023-05-22T06:00:48.028Z,36.92
2023-05-22T06:01:48.012Z,36.55
2023-05-22T06:02:50.586Z,36.39
2023-05-22T06:03:48.032Z,36.50
2023-05-22T06:04:47.991Z,36.50
2023-05-22T06:05:47.938Z,36.46
2023-05-22T06:06:47.869Z,36.30
2023-05-22T06:07:47.887Z,36.27
2023-05-22T06:08:47.837Z,36.34
2023-05-22T06:09:47.839Z,36.26
2023-05-22T06:10:47.808Z,36.39
2023-05-22T06:11:47.782Z,36.40
2023-05-22T06:12:47.750Z,36.24
2023-05-22T06:13:47.744Z,35.99
2023-05-22T06:14:47.708Z,36.13
2023-05-22T06:15:47.700Z,36.21
2023-05-22T06:16:47.804Z,36.11
2023-05-22T06:17:47.761Z,36.09
2023-05-22T06:18:47.686Z,35.84
2023-05-22T06:19:47.681Z,35.59
2023-05-22T06:20:47.596Z,35.49
2023-05-22T06:21:47.802Z,35.34
2023-05-22T06:22:47.550Z,35.17
2023-05-22T06:23:47.518Z,35.11
2023-05-22T06:24:47.525Z,34.99
2023-05-22T06:25:48.080Z,34.88
2023-05-22T06:26:47.507Z,34.70
2023-05-22T06:27:47.485Z,34.50
2023-05-22T06:28:47.402Z,34.41
2023-05-22T06:29:47.429Z,34.22
2023-05-22T06:30:47.618Z,34.17
2023-05-22T06:31:47.369Z,34.10
2023-05-22T06:32:47.461Z,34.21
2023-05-22T06:33:47.347Z,34.08
2023-05-22T06:34:47.238Z,34.17
2023-05-22T06:35:47.243Z,34.28
2023-05-22T06:36:47.169Z,34.14
2023-05-22T06:37:47.140Z,34.15
2023-05-22T06:38:47.165Z,34.04
2023-05-22T06:39:47.047Z,34.06
2023-05-22T06:40:47.112Z,34.78
2023-05-22T06:41:48.037Z,34.75
2023-05-22T06:42:47.080Z,34.69
2023-05-22T06:43:47.076Z,34.49
2023-05-22T06:44:47.287Z,34.36
2023-05-22T06:45:47.094Z,34.17
2023-05-22T06:46:47.150Z,34.19
2023-05-22T06:47:47.064Z,34.19
2023-05-22T06:48:46.981Z,34.19
2023-05-22T06:49:46.962Z,34.15
2023-05-22T06:50:46.989Z,34.26
2023-05-22T06:51:46.987Z,34.09
2023-05-22T06:52:47.010Z,33.96
2023-05-22T06:53:47.073Z,33.94
2023-05-22T06:54:47.042Z,33.95
2023-05-22T06:55:47.077Z,34.04
2023-05-22T06:56:47.068Z,34.26
2023-05-22T06:57:47.107Z,34.28
2023-05-22T06:58:47.131Z,34.26
2023-05-22T06:59:47.148Z,34.29
2023-05-22T07:00:47.168Z,34.38
2023-05-22T07:01:47.287Z,34.51
2023-05-22T07:02:47.279Z,34.45
2023-05-22T07:03:47.111Z,34.41
2023-05-22T07:04:47.041Z,34.58
2023-05-22T07:05:47.021Z,34.65
2023-05-22T07:06:47.014Z,34.55
2023-05-22T07:07:46.975Z,34.75
2023-05-22T07:08:46.933Z,34.67
2023-05-22T07:09:46.964Z,35.11
2023-05-22T07:10:46.992Z,35.23
2023-05-22T07:11:47.017Z,35.33
2023-05-22T07:12:47.053Z,35.33
2023-05-22T07:13:47.074Z,34.97
2023-05-22T07:14:47.035Z,35.05
2023-05-22T07:15:47.031Z,35.03
2023-05-22T07:16:47.028Z,35.08
2023-05-22T07:17:47.103Z,35.04
2023-05-22T07:18:46.939Z,34.92
2023-05-22T07:19:46.896Z,34.97
2023-05-22T07:20:46.851Z,34.77
2023-05-22T07:21:46.843Z,34.77
2023-05-22T07:22:46.819Z,34.81
2023-05-22T07:23:46.796Z,34.88
2023-05-22T07:24:46.818Z,34.78
2023-05-22T07:25:46.732Z,34.61
2023-05-22T07:26:46.805Z,34.68
2023-05-22T07:27:46.821Z,34.75
2023-05-22T07:28:46.928Z,34.73
2023-05-22T07:29:46.849Z,34.72
2023-05-22T07:30:46.882Z,34.89
2023-05-22T07:31:46.917Z,34.88
2023-05-22T07:32:46.948Z,34.81
2023-05-22T07:33:46.901Z,34.78
2023-05-22T07:34:46.895Z,34.70
2023-05-22T07:35:46.837Z,35.14
2023-05-22T07:36:46.807Z,34.75
2023-05-22T07:37:46.779Z,34.91
2023-05-22T07:38:46.760Z,34.56
2023-05-22T07:39:46.928Z,34.29
2023-05-22T07:40:46.653Z,34.75
2023-05-22T07:41:46.642Z,34.45
2023-05-22T07:42:46.690Z,34.10
2023-05-22T07:43:46.713Z,34.09
2023-05-22T07:44:46.744Z,34.06
2023-05-22T07:45:46.818Z,34.13
2023-05-22T07:46:46.801Z,34.17
2023-05-22T07:47:46.854Z,34.34
2023-05-22T07:48:46.789Z,34.30
2023-05-22T07:49:46.675Z,34.47
2023-05-22T07:50:46.686Z,34.45
2023-05-22T07:51:46.624Z,34.33
2023-05-22T07:52:46.587Z,34.20
2023-05-22T07:53:46.572Z,34.15
2023-05-22T07:54:46.557Z,34.19
2023-05-22T07:55:46.511Z,34.30
2023-05-22T07:56:46.490Z,34.32
2023-05-22T07:57:46.460Z,34.32
2023-05-22T07:58:46.448Z,34.31
2023-05-22T07:59:46.415Z,34.49
2023-05-22T08:00:46.434Z,34.35
2023-05-22T08:01:46.465Z,34.47
2023-05-22T08:02:46.547Z,34.31
2023-05-22T08:03:46.680Z,34.29
2023-05-22T08:04:46.696Z,34.43
2023-05-22T08:05:46.713Z,34.46
2023-05-22T08:06:46.636Z,34.51
2023-05-22T08:07:46.620Z,34.47
2023-05-22T08:08:46.658Z,34.46
2023-05-22T08:09:46.678Z,34.38
2023-05-22T08:11:02.461Z,34.42
2023-05-22T08:11:47.671Z,34.43
2023-05-22T08:12:46.652Z,34.30
2023-05-22T08:13:46.645Z,34.25
2023-05-22T08:14:46.570Z,34.00
2023-05-22T08:15:46.551Z,33.90
2023-05-22T08:16:46.573Z,33.87
2023-05-22T08:17:46.522Z,33.76
2023-05-22T08:18:46.506Z,33.54
2023-05-22T08:19:46.593Z,33.57
2023-05-22T08:20:46.458Z,33.49
2023-05-22T08:21:46.506Z,33.69
2023-05-22T08:22:46.494Z,33.67
2023-05-22T08:23:46.512Z,33.74
2023-05-22T08:24:46.538Z,33.58
2023-05-22T08:25:46.562Z,33.67
2023-05-22T08:26:46.616Z,33.66
2023-05-22T08:27:46.608Z,33.57
2023-05-22T08:28:46.642Z,33.64
2023-05-22T08:29:46.673Z,33.66
2023-05-22T08:30:46.675Z,34.02
2023-05-22T08:31:46.732Z,33.13
2023-05-22T08:32:46.716Z,33.12
2023-05-22T08:33:46.643Z,32.97
2023-05-22T08:34:46.613Z,32.91
2023-05-22T08:35:46.579Z,32.51
2023-05-22T08:36:46.665Z,32.03
2023-05-22T08:37:46.530Z,32.00
2023-05-22T08:38:46.521Z,31.25
2023-05-22T08:39:46.543Z,31.47
2023-05-22T08:40:46.742Z,31.32
2023-05-22T08:41:46.524Z,30.97
2023-05-22T08:42:46.615Z,31.05
2023-05-22T08:43:46.833Z,30.80
2023-05-22T08:44:46.696Z,30.57
2023-05-22T08:45:46.739Z,30.69
2023-05-22T08:46:46.730Z,30.85
2023-05-22T08:47:46.759Z,30.68
2023-05-22T08:48:46.780Z,30.64
2023-05-22T08:49:46.783Z,30.52
2023-05-22T08:50:46.744Z,30.40
2023-05-22T08:51:46.758Z,30.58
2023-05-22T08:52:46.905Z,30.68
2023-05-22T08:53:46.728Z,30.73
2023-05-22T08:54:46.680Z,30.72
2023-05-22T08:55:46.665Z,30.59
2023-05-22T08:56:56.235Z,30.50
2023-05-22T08:57:47.625Z,30.51
2023-05-22T08:58:46.561Z,30.45
2023-05-22T08:59:46.550Z,30.43
2023-05-22T09:00:46.683Z,30.45
2023-05-22T09:01:46.511Z,30.48
2023-05-22T09:02:46.657Z,30.46
2023-05-22T09:03:46.580Z,30.43
2023-05-22T09:04:46.420Z,30.43
2023-05-22T09:05:46.449Z,30.46
2023-05-22T09:06:46.350Z,30.49
2023-05-22T09:07:46.361Z,30.64
2023-05-22T09:08:46.295Z,30.52
2023-05-22T09:09:46.307Z,30.66
2023-05-22T09:10:46.276Z,30.53
2023-05-22T09:11:46.272Z,30.43
2023-05-22T09:12:46.277Z,30.50
2023-05-22T09:13:46.272Z,30.58
2023-05-22T09:14:46.232Z,30.56
2023-05-22T09:15:46.204Z,30.68
2023-05-22T09:16:46.211Z,30.54
2023-05-22T09:17:46.202Z,30.63
2023-05-22T09:18:46.176Z,30.61
2023-05-22T09:19:46.219Z,30.68
2023-05-22T09:20:46.039Z,30.65
2023-05-22T09:21:46.268Z,30.74
2023-05-22T09:22:46.014Z,30.71
2023-05-22T09:23:45.981Z,30.63
2023-05-22T09:24:45.973Z,30.63
2023-05-22T09:25:45.951Z,30.63
2023-05-22T09:26:45.920Z,30.63
2023-05-22T09:27:46.589Z,30.65
2023-05-22T09:28:45.932Z,30.70
2023-05-22T09:29:45.958Z,30.69
2023-05-22T09:30:45.979Z,30.71
2023-05-22T09:31:46.132Z,30.70
2023-05-22T09:32:46.035Z,30.78
2023-05-22T09:33:45.988Z,30.74
2023-05-22T09:34:45.989Z,30.64
2023-05-22T09:35:46.020Z,30.51
2023-05-22T09:36:46.029Z,30.57
2023-05-22T09:37:46.071Z,30.65
2023-05-22T09:38:46.076Z,30.71
2023-05-22T09:39:46.044Z,30.54
2023-05-22T09:40:46.080Z,31.01
2023-05-22T09:41:46.113Z,29.04
2023-05-22T09:42:46.151Z,30.91
2023-05-22T09:43:46.175Z,31.46
2023-05-22T09:44:46.278Z,31.15
2023-05-22T09:45:46.208Z,31.33
2023-05-22T09:46:46.308Z,31.49
2023-05-22T09:47:46.145Z,32.16
2023-05-22T09:48:46.102Z,32.56
2023-05-22T09:49:46.103Z,30.32
2023-05-22T09:50:46.151Z,30.52
2023-05-22T09:51:46.073Z,29.93
2023-05-22T09:52:46.031Z,29.61
2023-05-22T09:53:45.998Z,28.99
2023-05-22T09:54:45.956Z,28.08
2023-05-22T09:55:45.936Z,28.04
2023-05-22T09:56:45.937Z,28.79
2023-05-22T09:57:45.934Z,27.20
2023-05-22T09:58:45.913Z,27.67
2023-05-22T09:59:45.874Z,29.24
2023-05-22T10:00:45.891Z,29.44
2023-05-22T10:01:45.892Z,29.41
2023-05-22T10:02:45.928Z,28.83
2023-05-22T10:03:47.320Z,28.94
2023-05-22T10:04:45.899Z,28.96
2023-05-22T10:05:45.759Z,27.86
2023-05-22T10:06:45.790Z,28.41
2023-05-22T10:07:45.798Z,29.08
2023-05-22T10:08:45.759Z,28.70
2023-05-22T10:09:45.730Z,28.79
2023-05-22T10:10:45.702Z,29.17
2023-05-22T10:11:45.674Z,27.07
2023-05-22T10:12:45.769Z,26.84
2023-05-22T10:13:45.631Z,27.49
2023-05-22T10:14:45.676Z,27.32
2023-05-22T10:15:45.650Z,28.46
2023-05-22T10:16:45.566Z,29.06
2023-05-22T10:17:45.659Z,28.38
2023-05-22T10:18:45.570Z,28.75
2023-05-22T10:19:46.861Z,27.67
2023-05-22T10:20:45.507Z,27.59
2023-05-22T10:21:45.504Z,26.96
2023-05-22T10:22:45.454Z,27.99
2023-05-22T10:23:45.439Z,28.30
2023-05-22T10:24:45.395Z,28.45
2023-05-22T10:25:45.338Z,28.44
2023-05-22T10:26:45.352Z,28.54
2023-05-22T10:27:45.306Z,28.66
2023-05-22T10:28:45.346Z,28.70
2023-05-22T10:29:45.244Z,28.92
2023-05-22T10:30:45.199Z,29.10
2023-05-22T10:31:45.168Z,29.07
2023-05-22T10:32:45.230Z,28.97
2023-05-22T10:33:45.196Z,29.13
2023-05-22T10:34:45.176Z,29.36
2023-05-22T10:35:45.232Z,30.51
2023-05-22T10:36:46.608Z,30.24
2023-05-22T10:37:45.221Z,29.43
2023-05-22T10:38:45.185Z,28.94
2023-05-22T10:39:45.141Z,29.44
2023-05-22T10:40:45.238Z,28.94
2023-05-22T10:41:45.092Z,29.75
2023-05-22T10:42:45.078Z,30.39
2023-05-22T10:43:44.984Z,30.67
2023-05-22T10:44:45.062Z,30.78
2023-05-22T10:45:45.639Z,31.22
2023-05-22T10:46:44.920Z,31.44
2023-05-22T10:47:45.192Z,31.76
2023-05-22T10:48:44.888Z,32.20
2023-05-22T10:49:44.981Z,32.13
2023-05-22T10:50:44.755Z,31.93
2023-05-22T10:51:45.621Z,32.00
2023-05-22T10:52:44.697Z,32.35
2023-05-22T10:53:44.640Z,32.69
2023-05-22T10:54:44.641Z,32.73
2023-05-22T10:55:44.703Z,32.87
2023-05-22T10:56:44.527Z,33.22
2023-05-22T10:57:44.501Z,33.32
2023-05-22T10:58:44.468Z,33.45
2023-05-22T10:59:44.446Z,33.32
2023-05-22T11:00:44.500Z,33.53
2023-05-22T11:01:44.399Z,33.17
2023-05-22T11:02:44.319Z,33.76
2023-05-22T11:03:44.372Z,33.77
2023-05-22T11:04:44.279Z,33.90
2023-05-22T11:05:44.210Z,33.28
2023-05-22T11:06:45.268Z,33.90
2023-05-22T11:07:44.140Z,33.83
2023-05-22T11:08:44.123Z,34.01
2023-05-22T11:09:44.130Z,34.36
2023-05-22T11:10:44.010Z,34.41
2023-05-22T11:11:44.008Z,34.49
2023-05-22T11:12:44.190Z,34.53
2023-05-22T11:13:43.925Z,32.62
2023-05-22T11:14:43.880Z,33.82
2023-05-22T11:15:43.843Z,31.98
2023-05-22T11:16:43.935Z,32.89
2023-05-22T11:17:43.811Z,30.62
2023-05-22T11:18:45.203Z,31.83
2023-05-22T11:19:43.746Z,31.06
2023-05-22T11:20:43.680Z,30.69
2023-05-22T11:21:43.693Z,31.23
2023-05-22T11:22:43.752Z,31.08
2023-05-22T11:23:43.735Z,30.94
2023-05-22T11:24:43.765Z,30.44
2023-05-22T11:25:43.805Z,29.65
2023-05-22T11:26:43.827Z,30.13
2023-05-22T11:27:43.840Z,30.44
2023-05-22T11:28:43.908Z,30.22
2023-05-22T11:29:43.906Z,29.85
2023-05-22T11:30:43.945Z,29.88
2023-05-22T11:31:44.027Z,28.13
2023-05-22T11:32:44.062Z,27.97
2023-05-22T11:33:43.959Z,27.81
2023-05-22T11:34:44.530Z,28.04
2023-05-22T11:35:43.911Z,27.76
2023-05-22T11:36:43.893Z,27.37
2023-05-22T11:37:43.877Z,28.38
2023-05-22T11:38:43.850Z,28.78
2023-05-22T11:39:43.827Z,28.93
2023-05-22T11:40:44.096Z,29.23
2023-05-22T11:41:43.781Z,29.20
2023-05-22T11:42:43.806Z,29.17
2023-05-22T11:43:43.791Z,29.12
2023-05-22T11:44:43.788Z,29.19
2023-05-22T11:45:43.769Z,29.21
2023-05-22T11:46:43.838Z,29.23
2023-05-22T11:47:43.887Z,29.24
2023-05-22T11:48:43.896Z,29.36
2023-05-22T11:49:43.777Z,29.42
2023-05-22T11:50:44.023Z,29.43
2023-05-22T11:51:43.724Z,29.51
2023-05-22T11:52:43.677Z,29.55
2023-05-22T11:53:43.641Z,29.59
2023-05-22T11:54:43.615Z,29.68
2023-05-22T11:55:43.572Z,29.69
2023-05-22T11:56:43.578Z,29.71
2023-05-22T11:57:43.537Z,29.68
2023-05-22T11:58:43.499Z,29.72
2023-05-22T11:59:43.482Z,29.79
2023-05-22T12:00:43.485Z,29.74
2023-05-22T12:01:43.515Z,29.76
2023-05-22T12:02:43.566Z,29.71
2023-05-22T12:03:43.622Z,29.76
2023-05-22T12:04:43.620Z,29.73
2023-05-22T12:05:43.554Z,29.69
2023-05-22T12:06:43.620Z,29.69
2023-05-22T12:07:43.605Z,29.70
2023-05-22T12:08:43.623Z,29.70
2023-05-22T12:09:43.626Z,29.65
2023-05-22T12:10:43.663Z,29.70
2023-05-22T12:11:43.720Z,29.71
2023-05-22T12:12:43.796Z,29.66
2023-05-22T12:13:43.777Z,29.71
2023-05-22T12:14:43.766Z,29.73
2023-05-22T12:15:43.750Z,29.70
2023-05-22T12:16:43.872Z,29.69
2023-05-22T12:17:43.779Z,29.74
2023-05-22T12:18:43.740Z,29.77
2023-05-22T12:19:43.722Z,29.78
2023-05-22T12:20:43.807Z,29.82
2023-05-22T12:21:43.752Z,29.81
2023-05-22T12:22:43.763Z,29.81
2023-05-22T12:23:43.715Z,29.78
2023-05-22T12:24:43.648Z,29.80
2023-05-22T12:25:43.619Z,29.80
2023-05-22T12:26:43.617Z,29.85
2023-05-22T12:27:43.584Z,29.80
2023-05-22T12:28:43.570Z,29.80
2023-05-22T12:29:43.541Z,29.74
2023-05-22T12:30:43.561Z,29.75
2023-05-22T12:31:43.468Z,29.73
2023-05-22T12:32:43.513Z,29.80
2023-05-22T12:33:43.404Z,29.77
2023-05-22T12:34:44.099Z,29.75
2023-05-22T12:35:43.354Z,29.78
2023-05-22T12:36:43.423Z,29.75
2023-05-22T12:37:43.292Z,29.77
2023-05-22T12:38:43.295Z,29.77
2023-05-22T12:39:43.252Z,29.72
2023-05-22T12:40:43.231Z,29.74
2023-05-22T12:41:43.198Z,29.72
2023-05-22T12:42:43.165Z,29.72
2023-05-22T12:43:43.133Z,29.70
2023-05-22T12:44:43.109Z,29.72
2023-05-22T12:45:43.067Z,29.70
2023-05-22T12:46:43.084Z,29.71
2023-05-22T12:47:43.047Z,29.74
2023-05-22T12:48:42.977Z,29.72
2023-05-22T12:49:42.937Z,29.68
2023-05-22T12:50:42.929Z,29.70
2023-05-22T12:51:42.879Z,29.71
2023-05-22T12:52:42.957Z,29.69